Hilo International Airport Hilo US
ICAO: PHTO
IATA: ITO
Category: Medium
Scheduled Services:

Elevation: 38 ft
TransAlt. 18000 ft.

Airport Communications:
APP/DEP:119.7
ATIS:126.4
CTAF:118.1
GND:121.9
HONOLULU RDO:122.6
TWR:118.1

PHTO Zoom In..

If you have problems with the map follow the link
https://www.worldairports.se/pages/airport.php?
ICAO=PHTO

Runways:

(A) RW 03 length 5600 ft width 150 ft
---- / hdg 30

(B) RW 08 length 9800 ft width 150 ft
---- / hdg 79

(C) RW 21 length 5600 ft width 150 ft
---- / hdg 210

(D) RW 26 length 9800 ft width 150 ft
ILS 110.70 / hdg 259

Location; PHTO
Day. 06 / Time. 02.53 Zulu
* Altimeter: 29.92
* Temperature: 23° c. 73.4°f.
* Wind from: 230° Speed 05 kn.
Dewpoint: 19° c.
Visibility: 10 Statute Miles.
Clouds: Few 2400 ft.
Clouds: Broken 4000 ft.
Clouds: Overcast 6000 ft.

PHTO 060253Z 23005KT 10SM FEW024 BKN040 OVC060 23/19 A2992 RMK AO2 SLP131 60001 T02330194 51002


Wind From 230°
Speed 05 kn.

 
 
jpsmedia worldairports.se 2019   terms of use